Sheboygan, Wisconsin
Current Conditions -  °F | °C
As of 7:53 PM on Thursday 18 Dec 2014 (Local Time) from KSBM Reporting Station
Clear Clear  
Wind Chill: 17°   Ceiling: Unl
Heat Index: 23°   Visibility: 10mi
Dew Point: 18°   Wind: 5mph
Humidity: 81%   Direction: 310°NW
Pressure: 30.26"   Gusts: NA
Location:  43.76°N, 87.72°W
Report Text: KSBM 190153Z AUTO 31004KT 10SM CLR M05/M08 A3026 RMK AO2 SLP257 T10501078
Loading
Personal Weather Stations






























Interactive Weather Map New forecast layout! Learn more

10-Day Weather Forecast

Advertisements
Track Severe Weather on mobile